sensor_id;sensor_type;location;lat;lon;timestamp;P1;durP1;ratioP1;P2;durP2;ratioP2
80536;SDS011;69867;47.074;15.404;2024-03-07T00:01:51;10.10;;;5.03;;
80536;SDS011;69867;47.074;15.404;2024-03-07T00:04:16;11.35;;;4.95;;
80536;SDS011;69867;47.074;15.404;2024-03-07T00:06:41;11.60;;;4.97;;
80536;SDS011;69867;47.074;15.404;2024-03-07T00:09:07;9.73;;;5.20;;
80536;SDS011;69867;47.074;15.404;2024-03-07T00:11:32;10.98;;;4.88;;
80536;SDS011;69867;47.074;15.404;2024-03-07T00:13:57;11.57;;;5.43;;
80536;SDS011;69867;47.074;15.404;2024-03-07T00:16:23;13.30;;;5.13;;
80536;SDS011;69867;47.074;15.404;2024-03-07T00:18:48;10.75;;;5.30;;
80536;SDS011;69867;47.074;15.404;2024-03-07T00:21:14;12.30;;;5.18;;
80536;SDS011;69867;47.074;15.404;2024-03-07T00:23:39;11.65;;;5.43;;
80536;SDS011;69867;47.074;15.404;2024-03-07T00:26:04;11.75;;;5.50;;
80536;SDS011;69867;47.074;15.404;2024-03-07T00:28:30;9.55;;;4.65;;
80536;SDS011;69867;47.074;15.404;2024-03-07T00:30:55;10.65;;;5.35;;
80536;SDS011;69867;47.074;15.404;2024-03-07T00:33:20;14.32;;;6.57;;
80536;SDS011;69867;47.074;15.404;2024-03-07T00:35:45;11.75;;;5.32;;
80536;SDS011;69867;47.074;15.404;2024-03-07T00:38:11;12.75;;;6.05;;
80536;SDS011;69867;47.074;15.404;2024-03-07T00:40:36;12.23;;;5.53;;
80536;SDS011;69867;47.074;15.404;2024-03-07T00:43:01;11.23;;;5.57;;
80536;SDS011;69867;47.074;15.404;2024-03-07T00:45:27;11.07;;;5.68;;
80536;SDS011;69867;47.074;15.404;2024-03-07T00:47:52;12.05;;;5.90;;
80536;SDS011;69867;47.074;15.404;2024-03-07T00:50:17;10.45;;;5.43;;
80536;SDS011;69867;47.074;15.404;2024-03-07T00:52:43;11.73;;;5.90;;
80536;SDS011;69867;47.074;15.404;2024-03-07T00:55:08;10.75;;;5.53;;
80536;SDS011;69867;47.074;15.404;2024-03-07T00:57:34;10.23;;;5.07;;
80536;SDS011;69867;47.074;15.404;2024-03-07T00:59:59;10.27;;;5.65;;
80536;SDS011;69867;47.074;15.404;2024-03-07T01:02:25;15.48;;;6.50;;
80536;SDS011;69867;47.074;15.404;2024-03-07T01:04:50;11.73;;;5.63;;
80536;SDS011;69867;47.074;15.404;2024-03-07T01:07:15;12.57;;;6.10;;
80536;SDS011;69867;47.074;15.404;2024-03-07T01:09:40;12.93;;;5.72;;
80536;SDS011;69867;47.074;15.404;2024-03-07T01:12:06;12.48;;;5.32;;
80536;SDS011;69867;47.074;15.404;2024-03-07T01:14:31;12.63;;;5.75;;
80536;SDS011;69867;47.074;15.404;2024-03-07T01:16:57;11.68;;;5.40;;
80536;SDS011;69867;47.074;15.404;2024-03-07T01:19:22;15.10;;;6.07;;
80536;SDS011;69867;47.074;15.404;2024-03-07T01:21:48;11.50;;;5.65;;
80536;SDS011;69867;47.074;15.404;2024-03-07T01:24:13;12.98;;;6.07;;
80536;SDS011;69867;47.074;15.404;2024-03-07T01:26:38;13.75;;;5.47;;
80536;SDS011;69867;47.074;15.404;2024-03-07T01:29:04;10.23;;;5.32;;
80536;SDS011;69867;47.074;15.404;2024-03-07T01:31:29;11.05;;;5.63;;
80536;SDS011;69867;47.074;15.404;2024-03-07T01:33:54;10.27;;;4.80;;
80536;SDS011;69867;47.074;15.404;2024-03-07T01:36:19;11.13;;;5.22;;
80536;SDS011;69867;47.074;15.404;2024-03-07T01:38:45;12.50;;;5.75;;
80536;SDS011;69867;47.074;15.404;2024-03-07T01:41:10;12.85;;;5.82;;
80536;SDS011;69867;47.074;15.404;2024-03-07T01:43:36;10.88;;;5.25;;
80536;SDS011;69867;47.074;15.404;2024-03-07T01:46:01;10.38;;;5.55;;
80536;SDS011;69867;47.074;15.404;2024-03-07T01:48:27;13.07;;;5.80;;
80536;SDS011;69867;47.074;15.404;2024-03-07T01:50:53;12.02;;;5.85;;
80536;SDS011;69867;47.074;15.404;2024-03-07T01:53:19;14.70;;;5.70;;
80536;SDS011;69867;47.074;15.404;2024-03-07T01:55:44;12.45;;;6.15;;
80536;SDS011;69867;47.074;15.404;2024-03-07T01:58:10;13.48;;;5.68;;
80536;SDS011;69867;47.074;15.404;2024-03-07T02:03:06;11.03;;;5.20;;
80536;SDS011;69867;47.074;15.404;2024-03-07T02:05:31;12.23;;;5.03;;
80536;SDS011;69867;47.074;15.404;2024-03-07T02:07:57;9.75;;;4.72;;
80536;SDS011;69867;47.074;15.404;2024-03-07T02:10:23;11.55;;;5.20;;
80536;SDS011;69867;47.074;15.404;2024-03-07T02:12:48;12.10;;;5.07;;
80536;SDS011;69867;47.074;15.404;2024-03-07T02:15:14;10.88;;;5.20;;
80536;SDS011;69867;47.074;15.404;2024-03-07T02:17:39;8.18;;;4.53;;
80536;SDS011;69867;47.074;15.404;2024-03-07T02:20:05;11.55;;;5.32;;
80536;SDS011;69867;47.074;15.404;2024-03-07T02:22:30;9.07;;;5.28;;
80536;SDS011;69867;47.074;15.404;2024-03-07T02:24:56;12.10;;;5.47;;
80536;SDS011;69867;47.074;15.404;2024-03-07T02:27:21;13.02;;;5.63;;
80536;SDS011;69867;47.074;15.404;2024-03-07T02:29:46;11.07;;;5.05;;
80536;SDS011;69867;47.074;15.404;2024-03-07T02:32:12;13.02;;;5.13;;
80536;SDS011;69867;47.074;15.404;2024-03-07T02:34:37;11.38;;;5.28;;
80536;SDS011;69867;47.074;15.404;2024-03-07T02:37:03;11.45;;;5.45;;
80536;SDS011;69867;47.074;15.404;2024-03-07T02:39:28;10.15;;;5.03;;
80536;SDS011;69867;47.074;15.404;2024-03-07T02:41:54;14.05;;;5.78;;
80536;SDS011;69867;47.074;15.404;2024-03-07T02:44:19;10.98;;;4.95;;
80536;SDS011;69867;47.074;15.404;2024-03-07T02:46:45;10.98;;;5.15;;
80536;SDS011;69867;47.074;15.404;2024-03-07T02:49:10;10.45;;;5.00;;
80536;SDS011;69867;47.074;15.404;2024-03-07T02:51:35;10.93;;;5.13;;
80536;SDS011;69867;47.074;15.404;2024-03-07T02:54:01;12.90;;;5.38;;
80536;SDS011;69867;47.074;15.404;2024-03-07T02:56:27;11.18;;;5.32;;
80536;SDS011;69867;47.074;15.404;2024-03-07T02:58:52;10.73;;;5.47;;
80536;SDS011;69867;47.074;15.404;2024-03-07T03:01:17;9.80;;;4.63;;
80536;SDS011;69867;47.074;15.404;2024-03-07T03:03:43;14.68;;;5.53;;
80536;SDS011;69867;47.074;15.404;2024-03-07T03:06:08;12.23;;;4.90;;
80536;SDS011;69867;47.074;15.404;2024-03-07T03:08:34;10.45;;;4.95;;
80536;SDS011;69867;47.074;15.404;2024-03-07T03:11:00;10.77;;;5.05;;
80536;SDS011;69867;47.074;15.404;2024-03-07T03:13:25;12.30;;;5.53;;
80536;SDS011;69867;47.074;15.404;2024-03-07T03:15:51;12.73;;;5.30;;
80536;SDS011;69867;47.074;15.404;2024-03-07T03:18:16;12.77;;;5.65;;
80536;SDS011;69867;47.074;15.404;2024-03-07T03:20:42;12.30;;;5.72;;
80536;SDS011;69867;47.074;15.404;2024-03-07T03:23:07;13.57;;;5.28;;
80536;SDS011;69867;47.074;15.404;2024-03-07T03:25:32;11.77;;;5.53;;
80536;SDS011;69867;47.074;15.404;2024-03-07T03:27:58;12.80;;;6.13;;
80536;SDS011;69867;47.074;15.404;2024-03-07T03:30:23;12.05;;;5.55;;
80536;SDS011;69867;47.074;15.404;2024-03-07T03:32:48;10.15;;;4.70;;
80536;SDS011;69867;47.074;15.404;2024-03-07T03:35:14;11.25;;;5.18;;
80536;SDS011;69867;47.074;15.404;2024-03-07T03:37:40;13.98;;;5.35;;
80536;SDS011;69867;47.074;15.404;2024-03-07T03:40:09;11.90;;;5.40;;
80536;SDS011;69867;47.074;15.404;2024-03-07T03:42:35;11.80;;;5.10;;
80536;SDS011;69867;47.074;15.404;2024-03-07T03:45:02;9.93;;;5.32;;
80536;SDS011;69867;47.074;15.404;2024-03-07T03:47:28;11.75;;;4.95;;
80536;SDS011;69867;47.074;15.404;2024-03-07T03:49:53;12.20;;;5.35;;
80536;SDS011;69867;47.074;15.404;2024-03-07T03:52:18;12.52;;;4.80;;
80536;SDS011;69867;47.074;15.404;2024-03-07T03:54:44;12.32;;;5.45;;
80536;SDS011;69867;47.074;15.404;2024-03-07T03:57:09;10.75;;;4.80;;
80536;SDS011;69867;47.074;15.404;2024-03-07T03:59:34;11.32;;;5.28;;
80536;SDS011;69867;47.074;15.404;2024-03-07T04:02:00;9.20;;;4.57;;
80536;SDS011;69867;47.074;15.404;2024-03-07T04:04:25;12.60;;;5.47;;
80536;SDS011;69867;47.074;15.404;2024-03-07T04:06:50;14.88;;;6.32;;
80536;SDS011;69867;47.074;15.404;2024-03-07T04:09:16;12.55;;;5.55;;
80536;SDS011;69867;47.074;15.404;2024-03-07T04:11:41;13.45;;;6.15;;
80536;SDS011;69867;47.074;15.404;2024-03-07T04:14:09;10.35;;;5.18;;
80536;SDS011;69867;47.074;15.404;2024-03-07T04:16:34;11.30;;;5.25;;
80536;SDS011;69867;47.074;15.404;2024-03-07T04:19:00;14.52;;;5.85;;
80536;SDS011;69867;47.074;15.404;2024-03-07T04:21:25;14.50;;;6.25;;
80536;SDS011;69867;47.074;15.404;2024-03-07T04:23:50;13.05;;;5.75;;
80536;SDS011;69867;47.074;15.404;2024-03-07T04:26:16;12.30;;;5.38;;
80536;SDS011;69867;47.074;15.404;2024-03-07T04:28:41;12.38;;;5.63;;
80536;SDS011;69867;47.074;15.404;2024-03-07T04:31:06;14.82;;;5.88;;
80536;SDS011;69867;47.074;15.404;2024-03-07T04:33:31;13.02;;;5.70;;
80536;SDS011;69867;47.074;15.404;2024-03-07T04:35:57;10.02;;;5.22;;
80536;SDS011;69867;47.074;15.404;2024-03-07T04:38:22;12.35;;;5.45;;
80536;SDS011;69867;47.074;15.404;2024-03-07T04:40:47;11.63;;;5.80;;
80536;SDS011;69867;47.074;15.404;2024-03-07T04:43:13;12.57;;;5.80;;
80536;SDS011;69867;47.074;15.404;2024-03-07T04:45:38;11.88;;;5.10;;
80536;SDS011;69867;47.074;15.404;2024-03-07T04:48:03;12.43;;;5.35;;
80536;SDS011;69867;47.074;15.404;2024-03-07T04:50:29;12.18;;;5.72;;
80536;SDS011;69867;47.074;15.404;2024-03-07T04:52:54;10.52;;;5.53;;
80536;SDS011;69867;47.074;15.404;2024-03-07T04:55:20;9.50;;;5.13;;
80536;SDS011;69867;47.074;15.404;2024-03-07T04:57:45;16.63;;;6.40;;
80536;SDS011;69867;47.074;15.404;2024-03-07T05:00:11;10.50;;;5.70;;
80536;SDS011;69867;47.074;15.404;2024-03-07T05:02:37;13.02;;;5.82;;
80536;SDS011;69867;47.074;15.404;2024-03-07T05:05:02;11.77;;;5.35;;
80536;SDS011;69867;47.074;15.404;2024-03-07T05:07:28;13.13;;;5.30;;
80536;SDS011;69867;47.074;15.404;2024-03-07T05:09:53;13.88;;;6.20;;
80536;SDS011;69867;47.074;15.404;2024-03-07T05:12:18;16.02;;;5.88;;
80536;SDS011;69867;47.074;15.404;2024-03-07T05:14:44;11.93;;;5.38;;
80536;SDS011;69867;47.074;15.404;2024-03-07T05:17:09;11.57;;;5.53;;
80536;SDS011;69867;47.074;15.404;2024-03-07T05:19:35;10.68;;;4.93;;
80536;SDS011;69867;47.074;15.404;2024-03-07T05:22:00;10.52;;;4.50;;
80536;SDS011;69867;47.074;15.404;2024-03-07T05:24:27;10.65;;;4.80;;
80536;SDS011;69867;47.074;15.404;2024-03-07T05:26:52;10.52;;;5.60;;
80536;SDS011;69867;47.074;15.404;2024-03-07T05:29:18;11.80;;;4.95;;
80536;SDS011;69867;47.074;15.404;2024-03-07T05:31:43;9.57;;;4.55;;
80536;SDS011;69867;47.074;15.404;2024-03-07T05:34:09;10.80;;;5.10;;
80536;SDS011;69867;47.074;15.404;2024-03-07T05:36:37;10.52;;;4.93;;
80536;SDS011;69867;47.074;15.404;2024-03-07T05:39:03;9.57;;;4.70;;
80536;SDS011;69867;47.074;15.404;2024-03-07T05:41:28;8.68;;;5.30;;
80536;SDS011;69867;47.074;15.404;2024-03-07T05:43:53;11.18;;;5.20;;
80536;SDS011;69867;47.074;15.404;2024-03-07T05:46:19;9.70;;;4.32;;
80536;SDS011;69867;47.074;15.404;2024-03-07T05:48:44;9.20;;;4.95;;
80536;SDS011;69867;47.074;15.404;2024-03-07T05:51:09;12.40;;;4.95;;
80536;SDS011;69867;47.074;15.404;2024-03-07T05:53:35;13.35;;;6.47;;
80536;SDS011;69867;47.074;15.404;2024-03-07T05:56:00;11.20;;;5.22;;
80536;SDS011;69867;47.074;15.404;2024-03-07T05:58:25;12.40;;;4.35;;
80536;SDS011;69867;47.074;15.404;2024-03-07T06:00:51;9.80;;;5.10;;
80536;SDS011;69867;47.074;15.404;2024-03-07T06:03:16;10.88;;;5.05;;
80536;SDS011;69867;47.074;15.404;2024-03-07T06:05:43;11.85;;;5.13;;
80536;SDS011;69867;47.074;15.404;2024-03-07T06:08:09;11.75;;;4.63;;
80536;SDS011;69867;47.074;15.404;2024-03-07T06:10:34;10.38;;;5.70;;
80536;SDS011;69867;47.074;15.404;2024-03-07T06:12:59;10.43;;;5.05;;
80536;SDS011;69867;47.074;15.404;2024-03-07T06:15:24;13.27;;;5.22;;
80536;SDS011;69867;47.074;15.404;2024-03-07T06:17:50;9.57;;;4.60;;
80536;SDS011;69867;47.074;15.404;2024-03-07T06:20:15;9.85;;;4.32;;
80536;SDS011;69867;47.074;15.404;2024-03-07T06:22:41;9.15;;;4.38;;
80536;SDS011;69867;47.074;15.404;2024-03-07T06:25:06;10.50;;;3.83;;
80536;SDS011;69867;47.074;15.404;2024-03-07T06:27:32;10.77;;;4.93;;
80536;SDS011;69867;47.074;15.404;2024-03-07T06:29:57;9.00;;;4.22;;
80536;SDS011;69867;47.074;15.404;2024-03-07T06:32:22;10.02;;;4.00;;
80536;SDS011;69867;47.074;15.404;2024-03-07T06:34:48;8.13;;;3.97;;
80536;SDS011;69867;47.074;15.404;2024-03-07T06:37:13;7.85;;;4.20;;
80536;SDS011;69867;47.074;15.404;2024-03-07T06:39:38;8.88;;;3.80;;
80536;SDS011;69867;47.074;15.404;2024-03-07T06:42:04;7.10;;;3.65;;
80536;SDS011;69867;47.074;15.404;2024-03-07T06:44:29;9.23;;;3.85;;
80536;SDS011;69867;47.074;15.404;2024-03-07T06:46:54;9.07;;;4.18;;
80536;SDS011;69867;47.074;15.404;2024-03-07T06:49:20;9.45;;;4.05;;
80536;SDS011;69867;47.074;15.404;2024-03-07T06:51:45;6.03;;;3.85;;
80536;SDS011;69867;47.074;15.404;2024-03-07T06:54:10;6.72;;;3.45;;
80536;SDS011;69867;47.074;15.404;2024-03-07T06:56:36;8.60;;;4.10;;
80536;SDS011;69867;47.074;15.404;2024-03-07T06:59:01;7.10;;;3.58;;
80536;SDS011;69867;47.074;15.404;2024-03-07T07:01:26;5.75;;;2.92;;
80536;SDS011;69867;47.074;15.404;2024-03-07T07:03:52;8.95;;;3.17;;
80536;SDS011;69867;47.074;15.404;2024-03-07T07:06:17;5.72;;;2.90;;
80536;SDS011;69867;47.074;15.404;2024-03-07T07:08:43;6.57;;;3.10;;
80536;SDS011;69867;47.074;15.404;2024-03-07T07:11:09;8.63;;;3.53;;
80536;SDS011;69867;47.074;15.404;2024-03-07T07:13:34;5.28;;;2.63;;
80536;SDS011;69867;47.074;15.404;2024-03-07T07:15:59;5.82;;;2.85;;
80536;SDS011;69867;47.074;15.404;2024-03-07T07:18:25;5.97;;;2.95;;
80536;SDS011;69867;47.074;15.404;2024-03-07T07:20:50;4.95;;;2.20;;
80536;SDS011;69867;47.074;15.404;2024-03-07T07:23:15;4.53;;;1.90;;
80536;SDS011;69867;47.074;15.404;2024-03-07T07:25:41;5.20;;;1.90;;
80536;SDS011;69867;47.074;15.404;2024-03-07T07:28:06;4.03;;;2.20;;
80536;SDS011;69867;47.074;15.404;2024-03-07T07:30:31;4.70;;;2.67;;
80536;SDS011;69867;47.074;15.404;2024-03-07T07:32:57;4.95;;;1.95;;
80536;SDS011;69867;47.074;15.404;2024-03-07T07:35:22;4.78;;;2.30;;
80536;SDS011;69867;47.074;15.404;2024-03-07T07:37:49;5.38;;;2.40;;
80536;SDS011;69867;47.074;15.404;2024-03-07T07:40:18;5.85;;;2.28;;
80536;SDS011;69867;47.074;15.404;2024-03-07T07:42:44;3.83;;;1.60;;
80536;SDS011;69867;47.074;15.404;2024-03-07T07:45:11;6.25;;;2.55;;
80536;SDS011;69867;47.074;15.404;2024-03-07T07:47:39;4.45;;;2.03;;
80536;SDS011;69867;47.074;15.404;2024-03-07T07:50:07;4.05;;;1.70;;
80536;SDS011;69867;47.074;15.404;2024-03-07T07:52:33;4.18;;;1.60;;
80536;SDS011;69867;47.074;15.404;2024-03-07T07:54:58;3.58;;;1.45;;
80536;SDS011;69867;47.074;15.404;2024-03-07T07:57:24;4.78;;;1.45;;
80536;SDS011;69867;47.074;15.404;2024-03-07T07:59:49;6.30;;;2.03;;
80536;SDS011;69867;47.074;15.404;2024-03-07T08:02:14;3.90;;;1.80;;
80536;SDS011;69867;47.074;15.404;2024-03-07T08:04:40;3.50;;;1.70;;
80536;SDS011;69867;47.074;15.404;2024-03-07T08:07:05;7.80;;;3.20;;
80536;SDS011;69867;47.074;15.404;2024-03-07T08:09:30;8.38;;;3.80;;
80536;SDS011;69867;47.074;15.404;2024-03-07T08:11:56;11.95;;;5.75;;
80536;SDS011;69867;47.074;15.404;2024-03-07T08:14:21;8.75;;;3.70;;
80536;SDS011;69867;47.074;15.404;2024-03-07T08:16:49;7.82;;;3.88;;
80536;SDS011;69867;47.074;15.404;2024-03-07T08:19:15;6.65;;;2.38;;
80536;SDS011;69867;47.074;15.404;2024-03-07T08:21:40;10.85;;;6.10;;
80536;SDS011;69867;47.074;15.404;2024-03-07T08:24:05;13.68;;;5.78;;
80536;SDS011;69867;47.074;15.404;2024-03-07T08:26:31;10.27;;;5.50;;
80536;SDS011;69867;47.074;15.404;2024-03-07T08:28:56;4.47;;;2.28;;
80536;SDS011;69867;47.074;15.404;2024-03-07T08:31:22;3.88;;;1.27;;
80536;SDS011;69867;47.074;15.404;2024-03-07T08:33:47;4.00;;;1.65;;
80536;SDS011;69867;47.074;15.404;2024-03-07T08:36:12;3.08;;;0.95;;
80536;SDS011;69867;47.074;15.404;2024-03-07T08:38:37;2.85;;;1.00;;
80536;SDS011;69867;47.074;15.404;2024-03-07T08:41:03;2.42;;;0.90;;
80536;SDS011;69867;47.074;15.404;2024-03-07T08:43:28;2.72;;;1.02;;
80536;SDS011;69867;47.074;15.404;2024-03-07T08:45:53;2.40;;;1.00;;
80536;SDS011;69867;47.074;15.404;2024-03-07T08:48:19;2.88;;;0.93;;
80536;SDS011;69867;47.074;15.404;2024-03-07T08:50:44;3.05;;;1.13;;
80536;SDS011;69867;47.074;15.404;2024-03-07T08:53:09;3.33;;;1.50;;
80536;SDS011;69867;47.074;15.404;2024-03-07T08:55:35;3.13;;;1.20;;
80536;SDS011;69867;47.074;15.404;2024-03-07T08:58:00;9.73;;;3.88;;
80536;SDS011;69867;47.074;15.404;2024-03-07T09:00:26;11.30;;;5.35;;
80536;SDS011;69867;47.074;15.404;2024-03-07T09:02:52;11.90;;;5.18;;
80536;SDS011;69867;47.074;15.404;2024-03-07T09:05:18;12.38;;;4.90;;
80536;SDS011;69867;47.074;15.404;2024-03-07T09:07:45;6.72;;;3.08;;
80536;SDS011;69867;47.074;15.404;2024-03-07T09:10:11;4.03;;;1.60;;
80536;SDS011;69867;47.074;15.404;2024-03-07T09:12:36;3.05;;;1.38;;
80536;SDS011;69867;47.074;15.404;2024-03-07T09:15:02;2.75;;;1.10;;
80536;SDS011;69867;47.074;15.404;2024-03-07T09:17:31;9.70;;;4.65;;
80536;SDS011;69867;47.074;15.404;2024-03-07T09:19:56;9.55;;;4.60;;
80536;SDS011;69867;47.074;15.404;2024-03-07T09:22:22;10.55;;;5.65;;
80536;SDS011;69867;47.074;15.404;2024-03-07T09:24:47;11.93;;;5.28;;
80536;SDS011;69867;47.074;15.404;2024-03-07T09:27:12;11.10;;;5.20;;
80536;SDS011;69867;47.074;15.404;2024-03-07T09:29:38;13.93;;;5.80;;
80536;SDS011;69867;47.074;15.404;2024-03-07T09:32:03;10.20;;;5.20;;
80536;SDS011;69867;47.074;15.404;2024-03-07T09:34:29;11.05;;;4.97;;
80536;SDS011;69867;47.074;15.404;2024-03-07T09:36:54;9.15;;;4.78;;
80536;SDS011;69867;47.074;15.404;2024-03-07T09:39:19;12.15;;;5.50;;
80536;SDS011;69867;47.074;15.404;2024-03-07T09:41:45;10.77;;;5.18;;
80536;SDS011;69867;47.074;15.404;2024-03-07T09:44:17;12.55;;;5.65;;
80536;SDS011;69867;47.074;15.404;2024-03-07T09:46:44;11.85;;;5.15;;
80536;SDS011;69867;47.074;15.404;2024-03-07T09:49:11;11.32;;;5.13;;
80536;SDS011;69867;47.074;15.404;2024-03-07T09:51:38;8.15;;;4.18;;
80536;SDS011;69867;47.074;15.404;2024-03-07T09:54:04;7.70;;;4.40;;
80536;SDS011;69867;47.074;15.404;2024-03-07T09:56:29;9.82;;;4.80;;
80536;SDS011;69867;47.074;15.404;2024-03-07T09:58:57;11.90;;;6.03;;
80536;SDS011;69867;47.074;15.404;2024-03-07T10:01:24;10.38;;;4.93;;
80536;SDS011;69867;47.074;15.404;2024-03-07T10:03:57;18.75;;;4.85;;
80536;SDS011;69867;47.074;15.404;2024-03-07T10:06:24;14.95;;;4.53;;
80536;SDS011;69867;47.074;15.404;2024-03-07T10:08:50;31.77;;;6.40;;
80536;SDS011;69867;47.074;15.404;2024-03-07T10:11:16;19.80;;;4.78;;
80536;SDS011;69867;47.074;15.404;2024-03-07T10:13:41;12.35;;;3.63;;
80536;SDS011;69867;47.074;15.404;2024-03-07T10:16:07;8.48;;;3.58;;
80536;SDS011;69867;47.074;15.404;2024-03-07T10:18:32;14.48;;;4.20;;
80536;SDS011;69867;47.074;15.404;2024-03-07T10:20:57;9.88;;;4.93;;
80536;SDS011;69867;47.074;15.404;2024-03-07T10:23:23;8.43;;;3.83;;
80536;SDS011;69867;47.074;15.404;2024-03-07T10:25:49;13.00;;;4.10;;
80536;SDS011;69867;47.074;15.404;2024-03-07T10:28:16;10.05;;;3.20;;
80536;SDS011;69867;47.074;15.404;2024-03-07T10:30:42;6.63;;;3.75;;
80536;SDS011;69867;47.074;15.404;2024-03-07T10:33:08;7.85;;;3.28;;
80536;SDS011;69867;47.074;15.404;2024-03-07T10:35:34;7.57;;;3.10;;
80536;SDS011;69867;47.074;15.404;2024-03-07T10:37:59;6.82;;;2.90;;
80536;SDS011;69867;47.074;15.404;2024-03-07T10:40:24;6.40;;;2.88;;
80536;SDS011;69867;47.074;15.404;2024-03-07T10:42:50;5.20;;;2.53;;
80536;SDS011;69867;47.074;15.404;2024-03-07T10:45:21;5.50;;;2.58;;
80536;SDS011;69867;47.074;15.404;2024-03-07T10:47:56;5.80;;;2.83;;
80536;SDS011;69867;47.074;15.404;2024-03-07T10:50:30;6.70;;;3.92;;
80536;SDS011;69867;47.074;15.404;2024-03-07T10:53:31;6.53;;;3.10;;
80536;SDS011;69867;47.074;15.404;2024-03-07T11:04:46;6.68;;;2.78;;
80536;SDS011;69867;47.074;15.404;2024-03-07T11:07:12;4.82;;;2.55;;
80536;SDS011;69867;47.074;15.404;2024-03-07T11:09:37;5.63;;;2.30;;
80536;SDS011;69867;47.074;15.404;2024-03-07T11:12:04;6.07;;;3.03;;
80536;SDS011;69867;47.074;15.404;2024-03-07T11:14:30;5.78;;;2.60;;
80536;SDS011;69867;47.074;15.404;2024-03-07T11:16:57;6.68;;;2.97;;
80536;SDS011;69867;47.074;15.404;2024-03-07T11:19:27;5.47;;;2.90;;
80536;SDS011;69867;47.074;15.404;2024-03-07T11:21:54;6.93;;;3.50;;
80536;SDS011;69867;47.074;15.404;2024-03-07T11:24:38;8.18;;;3.10;;
80536;SDS011;69867;47.074;15.404;2024-03-07T11:27:03;7.30;;;2.78;;
80536;SDS011;69867;47.074;15.404;2024-03-07T11:29:47;5.65;;;3.00;;
80536;SDS011;69867;47.074;15.404;2024-03-07T11:32:14;5.05;;;2.50;;
80536;SDS011;69867;47.074;15.404;2024-03-07T11:34:40;6.25;;;2.38;;
80536;SDS011;69867;47.074;15.404;2024-03-07T11:37:07;3.88;;;2.00;;
80536;SDS011;69867;47.074;15.404;2024-03-07T11:39:46;4.57;;;2.42;;
80536;SDS011;69867;47.074;15.404;2024-03-07T11:42:19;5.25;;;2.50;;
80536;SDS011;69867;47.074;15.404;2024-03-07T11:44:45;5.82;;;2.50;;
80536;SDS011;69867;47.074;15.404;2024-03-07T11:47:10;5.53;;;2.42;;
80536;SDS011;69867;47.074;15.404;2024-03-07T11:49:37;5.63;;;2.85;;
80536;SDS011;69867;47.074;15.404;2024-03-07T11:52:03;6.78;;;3.05;;
80536;SDS011;69867;47.074;15.404;2024-03-07T11:54:29;5.57;;;3.00;;
80536;SDS011;69867;47.074;15.404;2024-03-07T11:56:54;6.13;;;3.05;;
80536;SDS011;69867;47.074;15.404;2024-03-07T11:59:20;6.43;;;2.85;;
80536;SDS011;69867;47.074;15.404;2024-03-07T12:01:48;7.55;;;2.95;;
80536;SDS011;69867;47.074;15.404;2024-03-07T12:04:14;6.00;;;2.60;;
80536;SDS011;69867;47.074;15.404;2024-03-07T12:06:39;6.90;;;3.00;;
80536;SDS011;69867;47.074;15.404;2024-03-07T12:09:04;5.18;;;2.42;;
80536;SDS011;69867;47.074;15.404;2024-03-07T12:11:30;6.22;;;2.85;;
80536;SDS011;69867;47.074;15.404;2024-03-07T12:13:55;8.48;;;3.50;;
80536;SDS011;69867;47.074;15.404;2024-03-07T12:16:20;6.93;;;3.25;;
80536;SDS011;69867;47.074;15.404;2024-03-07T12:18:46;6.70;;;3.10;;
80536;SDS011;69867;47.074;15.404;2024-03-07T12:21:11;6.22;;;2.95;;
80536;SDS011;69867;47.074;15.404;2024-03-07T12:23:40;5.45;;;2.75;;
80536;SDS011;69867;47.074;15.404;2024-03-07T12:26:05;7.72;;;3.20;;
80536;SDS011;69867;47.074;15.404;2024-03-07T12:28:30;6.50;;;3.25;;
80536;SDS011;69867;47.074;15.404;2024-03-07T12:30:56;5.95;;;2.75;;
80536;SDS011;69867;47.074;15.404;2024-03-07T12:33:24;6.50;;;3.22;;
80536;SDS011;69867;47.074;15.404;2024-03-07T12:35:49;5.10;;;2.42;;
80536;SDS011;69867;47.074;15.404;2024-03-07T12:38:16;5.90;;;3.03;;
80536;SDS011;69867;47.074;15.404;2024-03-07T12:40:42;6.20;;;3.22;;
80536;SDS011;69867;47.074;15.404;2024-03-07T12:43:17;5.30;;;2.72;;
80536;SDS011;69867;47.074;15.404;2024-03-07T12:45:45;5.47;;;2.97;;
80536;SDS011;69867;47.074;15.404;2024-03-07T12:48:13;6.45;;;3.00;;
80536;SDS011;69867;47.074;15.404;2024-03-07T12:50:38;5.65;;;2.70;;
80536;SDS011;69867;47.074;15.404;2024-03-07T12:53:04;7.80;;;2.95;;
80536;SDS011;69867;47.074;15.404;2024-03-07T12:55:29;6.72;;;2.80;;
80536;SDS011;69867;47.074;15.404;2024-03-07T12:57:54;6.85;;;2.80;;
80536;SDS011;69867;47.074;15.404;2024-03-07T13:00:19;7.13;;;2.92;;
80536;SDS011;69867;47.074;15.404;2024-03-07T13:02:48;4.85;;;2.70;;
80536;SDS011;69867;47.074;15.404;2024-03-07T13:05:14;5.07;;;2.50;;
80536;SDS011;69867;47.074;15.404;2024-03-07T13:07:39;6.60;;;2.92;;
80536;SDS011;69867;47.074;15.404;2024-03-07T13:10:05;7.03;;;3.40;;
80536;SDS011;69867;47.074;15.404;2024-03-07T13:12:31;5.15;;;2.88;;
80536;SDS011;69867;47.074;15.404;2024-03-07T13:14:56;6.75;;;2.80;;
80536;SDS011;69867;47.074;15.404;2024-03-07T13:17:21;6.35;;;2.72;;
80536;SDS011;69867;47.074;15.404;2024-03-07T13:19:47;6.07;;;2.58;;
80536;SDS011;69867;47.074;15.404;2024-03-07T13:22:12;5.38;;;2.60;;
80536;SDS011;69867;47.074;15.404;2024-03-07T13:24:37;6.32;;;3.28;;
80536;SDS011;69867;47.074;15.404;2024-03-07T13:27:03;7.55;;;3.17;;
80536;SDS011;69867;47.074;15.404;2024-03-07T13:29:28;4.70;;;2.40;;
80536;SDS011;69867;47.074;15.404;2024-03-07T13:31:54;6.30;;;2.88;;
80536;SDS011;69867;47.074;15.404;2024-03-07T13:34:19;6.22;;;2.72;;
80536;SDS011;69867;47.074;15.404;2024-03-07T13:36:44;5.15;;;2.85;;
80536;SDS011;69867;47.074;15.404;2024-03-07T13:39:11;5.05;;;2.53;;
80536;SDS011;69867;47.074;15.404;2024-03-07T13:41:38;4.65;;;2.75;;
80536;SDS011;69867;47.074;15.404;2024-03-07T13:44:04;5.40;;;2.80;;
80536;SDS011;69867;47.074;15.404;2024-03-07T13:46:30;5.95;;;2.67;;
80536;SDS011;69867;47.074;15.404;2024-03-07T13:48:55;4.95;;;2.47;;
80536;SDS011;69867;47.074;15.404;2024-03-07T13:51:20;4.80;;;2.60;;
80536;SDS011;69867;47.074;15.404;2024-03-07T13:53:46;5.82;;;2.30;;
80536;SDS011;69867;47.074;15.404;2024-03-07T13:56:54;6.35;;;2.95;;
80536;SDS011;69867;47.074;15.404;2024-03-07T14:07:20;7.80;;;3.20;;
80536;SDS011;69867;47.074;15.404;2024-03-07T14:24:08;6.78;;;2.67;;
80536;SDS011;69867;47.074;15.404;2024-03-07T14:32:15;5.90;;;2.67;;
80536;SDS011;69867;47.074;15.404;2024-03-07T14:37:31;6.05;;;2.75;;
80536;SDS011;69867;47.074;15.404;2024-03-07T14:40:14;7.28;;;2.85;;
80536;SDS011;69867;47.074;15.404;2024-03-07T14:42:47;5.60;;;2.97;;
80536;SDS011;69867;47.074;15.404;2024-03-07T14:45:15;5.50;;;2.88;;
80536;SDS011;69867;47.074;15.404;2024-03-07T14:47:47;6.07;;;3.22;;
80536;SDS011;69867;47.074;15.404;2024-03-07T14:50:15;5.55;;;2.60;;
80536;SDS011;69867;47.074;15.404;2024-03-07T14:52:40;6.45;;;3.10;;
80536;SDS011;69867;47.074;15.404;2024-03-07T14:55:07;5.70;;;2.40;;
80536;SDS011;69867;47.074;15.404;2024-03-07T14:57:33;5.07;;;2.13;;
80536;SDS011;69867;47.074;15.404;2024-03-07T14:59:58;4.53;;;2.15;;
80536;SDS011;69867;47.074;15.404;2024-03-07T15:02:24;5.70;;;2.28;;
80536;SDS011;69867;47.074;15.404;2024-03-07T15:04:49;4.68;;;2.38;;